sensor_id;sensor_type;location;lat;lon;timestamp;temperature;humidity
23713;DHT22;12035;49.978;8.298;2022-12-07T00:03:31;7.40;71.70
23713;DHT22;12035;49.978;8.298;2022-12-07T00:08:29;7.40;71.70
23713;DHT22;12035;49.978;8.298;2022-12-07T00:13:26;7.40;71.90
23713;DHT22;12035;49.978;8.298;2022-12-07T00:18:24;7.40;71.90
23713;DHT22;12035;49.978;8.298;2022-12-07T00:23:21;7.30;71.90
23713;DHT22;12035;49.978;8.298;2022-12-07T00:28:18;7.40;71.90
23713;DHT22;12035;49.978;8.298;2022-12-07T00:33:15;7.40;71.90
23713;DHT22;12035;49.978;8.298;2022-12-07T00:38:14;7.40;71.80
23713;DHT22;12035;49.978;8.298;2022-12-07T00:43:11;7.30;71.80
23713;DHT22;12035;49.978;8.298;2022-12-07T00:48:08;7.30;71.80
23713;DHT22;12035;49.978;8.298;2022-12-07T00:53:05;7.30;71.90
23713;DHT22;12035;49.978;8.298;2022-12-07T00:58:04;7.20;72.60
23713;DHT22;12035;49.978;8.298;2022-12-07T01:03:01;7.20;71.90
23713;DHT22;12035;49.978;8.298;2022-12-07T01:07:58;7.20;72.10
23713;DHT22;12035;49.978;8.298;2022-12-07T01:12:55;7.20;71.90
23713;DHT22;12035;49.978;8.298;2022-12-07T01:17:54;7.20;71.90
23713;DHT22;12035;49.978;8.298;2022-12-07T01:22:51;7.20;71.90
23713;DHT22;12035;49.978;8.298;2022-12-07T01:27:49;7.20;71.90
23713;DHT22;12035;49.978;8.298;2022-12-07T01:32:46;7.10;71.90
23713;DHT22;12035;49.978;8.298;2022-12-07T01:37:44;7.20;72.00
23713;DHT22;12035;49.978;8.298;2022-12-07T01:42:41;7.10;72.00
23713;DHT22;12035;49.978;8.298;2022-12-07T01:47:38;7.10;71.90
23713;DHT22;12035;49.978;8.298;2022-12-07T01:52:37;7.10;71.90
23713;DHT22;12035;49.978;8.298;2022-12-07T01:57:40;7.10;71.90
23713;DHT22;12035;49.978;8.298;2022-12-07T02:02:43;7.10;72.10
23713;DHT22;12035;49.978;8.298;2022-12-07T02:07:42;7.10;72.90
23713;DHT22;12035;49.978;8.298;2022-12-07T02:12:41;7.10;72.10
23713;DHT22;12035;49.978;8.298;2022-12-07T02:17:45;7.20;72.30
23713;DHT22;12035;49.978;8.298;2022-12-07T02:23:17;7.10;72.40
23713;DHT22;12035;49.978;8.298;2022-12-07T02:29:00;7.20;72.80
23713;DHT22;12035;49.978;8.298;2022-12-07T02:34:09;7.20;72.80
23713;DHT22;12035;49.978;8.298;2022-12-07T02:39:14;7.10;72.80
23713;DHT22;12035;49.978;8.298;2022-12-07T02:44:18;7.10;72.90
23713;DHT22;12035;49.978;8.298;2022-12-07T02:49:17;7.10;72.90
23713;DHT22;12035;49.978;8.298;2022-12-07T02:54:17;7.10;72.90
23713;DHT22;12035;49.978;8.298;2022-12-07T02:59:25;7.10;73.00
23713;DHT22;12035;49.978;8.298;2022-12-07T03:04:35;7.10;73.10
23713;DHT22;12035;49.978;8.298;2022-12-07T03:09:44;7.10;73.10
23713;DHT22;12035;49.978;8.298;2022-12-07T03:14:52;7.00;73.20
23713;DHT22;12035;49.978;8.298;2022-12-07T03:20:06;7.00;73.30
23713;DHT22;12035;49.978;8.298;2022-12-07T03:25:07;7.00;73.40
23713;DHT22;12035;49.978;8.298;2022-12-07T03:30:09;7.00;73.50
23713;DHT22;12035;49.978;8.298;2022-12-07T03:35:12;7.10;73.60
23713;DHT22;12035;49.978;8.298;2022-12-07T03:40:16;7.10;73.70
23713;DHT22;12035;49.978;8.298;2022-12-07T03:45:17;7.10;73.60
23713;DHT22;12035;49.978;8.298;2022-12-07T03:50:22;7.10;73.50
23713;DHT22;12035;49.978;8.298;2022-12-07T03:55:28;7.20;73.60
23713;DHT22;12035;49.978;8.298;2022-12-07T04:00:28;7.20;73.60
23713;DHT22;12035;49.978;8.298;2022-12-07T04:05:25;7.30;73.60
23713;DHT22;12035;49.978;8.298;2022-12-07T04:10:23;7.30;73.60
23713;DHT22;12035;49.978;8.298;2022-12-07T04:15:23;7.30;74.30
23713;DHT22;12035;49.978;8.298;2022-12-07T04:20:21;7.30;73.50
23713;DHT22;12035;49.978;8.298;2022-12-07T04:25:19;7.30;73.40
23713;DHT22;12035;49.978;8.298;2022-12-07T04:30:16;7.30;73.50
23713;DHT22;12035;49.978;8.298;2022-12-07T04:35:14;7.30;73.50
23713;DHT22;12035;49.978;8.298;2022-12-07T04:40:12;7.30;73.60
23713;DHT22;12035;49.978;8.298;2022-12-07T04:45:10;7.30;73.70
23713;DHT22;12035;49.978;8.298;2022-12-07T04:50:09;7.30;73.70
23713;DHT22;12035;49.978;8.298;2022-12-07T04:55:07;7.30;73.70
23713;DHT22;12035;49.978;8.298;2022-12-07T05:00:10;7.30;73.70
23713;DHT22;12035;49.978;8.298;2022-12-07T05:05:07;7.30;73.70
23713;DHT22;12035;49.978;8.298;2022-12-07T05:10:06;7.30;73.80
23713;DHT22;12035;49.978;8.298;2022-12-07T05:15:06;7.40;73.90
23713;DHT22;12035;49.978;8.298;2022-12-07T05:20:05;7.40;73.90
23713;DHT22;12035;49.978;8.298;2022-12-07T05:25:06;7.50;73.90
23713;DHT22;12035;49.978;8.298;2022-12-07T05:30:07;7.50;73.70
23713;DHT22;12035;49.978;8.298;2022-12-07T05:35:05;7.50;73.70
23713;DHT22;12035;49.978;8.298;2022-12-07T05:40:03;7.50;73.70
23713;DHT22;12035;49.978;8.298;2022-12-07T05:45:04;7.50;73.70
23713;DHT22;12035;49.978;8.298;2022-12-07T05:50:05;7.50;73.60
23713;DHT22;12035;49.978;8.298;2022-12-07T05:55:03;7.50;73.50
23713;DHT22;12035;49.978;8.298;2022-12-07T06:00:03;7.50;73.50
23713;DHT22;12035;49.978;8.298;2022-12-07T06:05:03;7.50;73.50
23713;DHT22;12035;49.978;8.298;2022-12-07T06:10:00;7.50;73.60
23713;DHT22;12035;49.978;8.298;2022-12-07T06:14:57;7.50;73.60
23713;DHT22;12035;49.978;8.298;2022-12-07T06:19:55;7.50;73.50
23713;DHT22;12035;49.978;8.298;2022-12-07T06:24:53;7.50;73.50
23713;DHT22;12035;49.978;8.298;2022-12-07T06:29:50;7.50;74.30
23713;DHT22;12035;49.978;8.298;2022-12-07T06:34:47;7.50;73.50
23713;DHT22;12035;49.978;8.298;2022-12-07T06:39:45;7.50;73.50
23713;DHT22;12035;49.978;8.298;2022-12-07T06:44:43;7.50;73.50
23713;DHT22;12035;49.978;8.298;2022-12-07T06:49:40;7.50;73.50
23713;DHT22;12035;49.978;8.298;2022-12-07T06:54:37;7.50;73.60
23713;DHT22;12035;49.978;8.298;2022-12-07T06:59:34;7.50;73.70
23713;DHT22;12035;49.978;8.298;2022-12-07T07:04:33;7.50;73.70
23713;DHT22;12035;49.978;8.298;2022-12-07T07:09:30;7.50;73.80
23713;DHT22;12035;49.978;8.298;2022-12-07T07:14:27;7.50;73.70
23713;DHT22;12035;49.978;8.298;2022-12-07T07:19:24;7.50;73.80
23713;DHT22;12035;49.978;8.298;2022-12-07T07:24:22;7.40;73.80
23713;DHT22;12035;49.978;8.298;2022-12-07T07:29:19;7.40;73.90
23713;DHT22;12035;49.978;8.298;2022-12-07T07:34:17;7.40;73.90
23713;DHT22;12035;49.978;8.298;2022-12-07T07:39:14;7.40;74.00
23713;DHT22;12035;49.978;8.298;2022-12-07T07:44:12;7.40;74.20
23713;DHT22;12035;49.978;8.298;2022-12-07T07:49:10;7.50;74.30
23713;DHT22;12035;49.978;8.298;2022-12-07T07:54:07;7.50;74.20
23713;DHT22;12035;49.978;8.298;2022-12-07T07:59:04;7.50;74.30
23713;DHT22;12035;49.978;8.298;2022-12-07T08:04:03;7.50;74.30
23713;DHT22;12035;49.978;8.298;2022-12-07T08:09:00;7.60;74.30
23713;DHT22;12035;49.978;8.298;2022-12-07T08:13:57;7.60;74.30
23713;DHT22;12035;49.978;8.298;2022-12-07T08:18:54;7.60;74.20
23713;DHT22;12035;49.978;8.298;2022-12-07T08:23:53;7.70;74.20
23713;DHT22;12035;49.978;8.298;2022-12-07T08:28:50;7.70;74.30
23713;DHT22;12035;49.978;8.298;2022-12-07T08:33:48;7.70;74.20
23713;DHT22;12035;49.978;8.298;2022-12-07T08:38:45;7.70;74.20
23713;DHT22;12035;49.978;8.298;2022-12-07T08:43:44;7.80;74.30
23713;DHT22;12035;49.978;8.298;2022-12-07T08:48:44;7.80;74.10
23713;DHT22;12035;49.978;8.298;2022-12-07T08:53:46;7.80;74.10
23713;DHT22;12035;49.978;8.298;2022-12-07T08:58:49;7.80;74.30
23713;DHT22;12035;49.978;8.298;2022-12-07T09:03:50;7.80;74.40
23713;DHT22;12035;49.978;8.298;2022-12-07T09:08:51;7.90;74.60
23713;DHT22;12035;49.978;8.298;2022-12-07T09:13:54;7.90;74.40
23713;DHT22;12035;49.978;8.298;2022-12-07T09:18:51;8.00;74.30
23713;DHT22;12035;49.978;8.298;2022-12-07T09:23:49;8.00;74.20
23713;DHT22;12035;49.978;8.298;2022-12-07T09:28:48;8.10;74.60
23713;DHT22;12035;49.978;8.298;2022-12-07T09:33:53;8.20;74.90
23713;DHT22;12035;49.978;8.298;2022-12-07T09:38:52;8.50;75.00
23713;DHT22;12035;49.978;8.298;2022-12-07T09:43:51;8.70;75.00
23713;DHT22;12035;49.978;8.298;2022-12-07T09:48:51;9.00;74.50
23713;DHT22;12035;49.978;8.298;2022-12-07T09:53:51;9.20;73.10
23713;DHT22;12035;49.978;8.298;2022-12-07T09:58:50;9.30;72.10
23713;DHT22;12035;49.978;8.298;2022-12-07T10:03:53;9.40;72.00
23713;DHT22;12035;49.978;8.298;2022-12-07T10:08:53;9.60;71.50
23713;DHT22;12035;49.978;8.298;2022-12-07T10:13:52;9.70;70.70
23713;DHT22;12035;49.978;8.298;2022-12-07T10:18:52;9.70;70.00
23713;DHT22;12035;49.978;8.298;2022-12-07T10:24:14;9.70;69.90
23713;DHT22;12035;49.978;8.298;2022-12-07T10:29:16;9.60;69.10
23713;DHT22;12035;49.978;8.298;2022-12-07T10:34:24;9.60;69.70
23713;DHT22;12035;49.978;8.298;2022-12-07T10:39:26;9.70;69.90
23713;DHT22;12035;49.978;8.298;2022-12-07T10:44:25;9.90;70.50
23713;DHT22;12035;49.978;8.298;2022-12-07T10:49:45;10.10;70.50
23713;DHT22;12035;49.978;8.298;2022-12-07T10:55:04;10.40;69.40
23713;DHT22;12035;49.978;8.298;2022-12-07T11:00:16;10.70;69.00
23713;DHT22;12035;49.978;8.298;2022-12-07T11:05:24;10.90;67.80
23713;DHT22;12035;49.978;8.298;2022-12-07T11:10:26;11.10;66.60
23713;DHT22;12035;49.978;8.298;2022-12-07T11:15:32;11.10;66.00
23713;DHT22;12035;49.978;8.298;2022-12-07T11:20:43;11.10;66.90
23713;DHT22;12035;49.978;8.298;2022-12-07T11:25:49;11.10;65.70
23713;DHT22;12035;49.978;8.298;2022-12-07T11:30:59;11.10;66.20
23713;DHT22;12035;49.978;8.298;2022-12-07T11:36:11;11.20;66.60
23713;DHT22;12035;49.978;8.298;2022-12-07T11:41:17;11.40;65.80
23713;DHT22;12035;49.978;8.298;2022-12-07T11:46:22;11.60;64.70
23713;DHT22;12035;49.978;8.298;2022-12-07T11:51:24;11.60;63.50
23713;DHT22;12035;49.978;8.298;2022-12-07T11:56:25;11.60;62.90
23713;DHT22;12035;49.978;8.298;2022-12-07T12:01:31;11.60;62.80
23713;DHT22;12035;49.978;8.298;2022-12-07T12:06:40;11.60;61.90
23713;DHT22;12035;49.978;8.298;2022-12-07T12:11:50;11.60;61.80
23713;DHT22;12035;49.978;8.298;2022-12-07T12:17:44;11.40;61.30
23713;DHT22;12035;49.978;8.298;2022-12-07T12:22:54;11.30;61.30
23713;DHT22;12035;49.978;8.298;2022-12-07T12:27:56;11.10;62.00
23713;DHT22;12035;49.978;8.298;2022-12-07T12:33:02;11.00;62.20
23713;DHT22;12035;49.978;8.298;2022-12-07T12:38:24;10.90;62.70
23713;DHT22;12035;49.978;8.298;2022-12-07T12:43:48;10.90;63.10
23713;DHT22;12035;49.978;8.298;2022-12-07T12:48:47;11.00;62.90
23713;DHT22;12035;49.978;8.298;2022-12-07T12:53:46;11.00;63.30
23713;DHT22;12035;49.978;8.298;2022-12-07T12:58:44;11.10;62.70
23713;DHT22;12035;49.978;8.298;2022-12-07T13:03:52;11.10;62.80
23713;DHT22;12035;49.978;8.298;2022-12-07T13:08:51;11.10;62.10
23713;DHT22;12035;49.978;8.298;2022-12-07T13:13:48;11.10;63.50
23713;DHT22;12035;49.978;8.298;2022-12-07T13:18:46;11.20;62.30
23713;DHT22;12035;49.978;8.298;2022-12-07T13:23:56;11.20;61.70
23713;DHT22;12035;49.978;8.298;2022-12-07T13:29:05;11.20;60.90
23713;DHT22;12035;49.978;8.298;2022-12-07T13:34:28;11.20;60.60
23713;DHT22;12035;49.978;8.298;2022-12-07T13:39:28;11.30;60.40
23713;DHT22;12035;49.978;8.298;2022-12-07T13:44:27;11.40;60.40
23713;DHT22;12035;49.978;8.298;2022-12-07T13:49:27;11.30;60.20
23713;DHT22;12035;49.978;8.298;2022-12-07T13:54:30;11.30;60.10
23713;DHT22;12035;49.978;8.298;2022-12-07T13:59:28;11.30;59.90
23713;DHT22;12035;49.978;8.298;2022-12-07T14:04:34;11.20;59.60
23713;DHT22;12035;49.978;8.298;2022-12-07T14:09:34;11.10;59.20
23713;DHT22;12035;49.978;8.298;2022-12-07T14:14:32;11.10;59.60
23713;DHT22;12035;49.978;8.298;2022-12-07T14:19:42;11.00;59.80
23713;DHT22;12035;49.978;8.298;2022-12-07T14:24:43;10.90;59.70
23713;DHT22;12035;49.978;8.298;2022-12-07T14:29:41;10.90;60.00
23713;DHT22;12035;49.978;8.298;2022-12-07T14:34:38;10.80;60.40
23713;DHT22;12035;49.978;8.298;2022-12-07T14:39:35;10.80;60.50
23713;DHT22;12035;49.978;8.298;2022-12-07T14:44:33;10.80;60.70
23713;DHT22;12035;49.978;8.298;2022-12-07T14:49:30;10.70;60.80
23713;DHT22;12035;49.978;8.298;2022-12-07T14:54:30;10.70;61.20
23713;DHT22;12035;49.978;8.298;2022-12-07T14:59:28;10.70;61.00
23713;DHT22;12035;49.978;8.298;2022-12-07T15:04:26;10.60;60.90
23713;DHT22;12035;49.978;8.298;2022-12-07T15:09:23;10.50;61.70
23713;DHT22;12035;49.978;8.298;2022-12-07T15:14:20;10.50;61.20
23713;DHT22;12035;49.978;8.298;2022-12-07T15:19:19;10.40;61.30
23713;DHT22;12035;49.978;8.298;2022-12-07T15:24:20;10.30;61.70
23713;DHT22;12035;49.978;8.298;2022-12-07T15:29:17;10.30;62.50
23713;DHT22;12035;49.978;8.298;2022-12-07T15:34:14;10.20;62.90
23713;DHT22;12035;49.978;8.298;2022-12-07T15:39:11;10.20;63.40
23713;DHT22;12035;49.978;8.298;2022-12-07T15:44:11;10.10;63.80
23713;DHT22;12035;49.978;8.298;2022-12-07T15:49:27;10.10;64.10
23713;DHT22;12035;49.978;8.298;2022-12-07T15:54:25;10.10;64.50
23713;DHT22;12035;49.978;8.298;2022-12-07T15:59:27;10.00;64.50
23713;DHT22;12035;49.978;8.298;2022-12-07T16:04:26;10.00;64.50
23713;DHT22;12035;49.978;8.298;2022-12-07T16:09:24;10.00;64.50
23713;DHT22;12035;49.978;8.298;2022-12-07T16:14:22;10.00;64.50
23713;DHT22;12035;49.978;8.298;2022-12-07T16:19:21;9.90;64.40
23713;DHT22;12035;49.978;8.298;2022-12-07T16:24:18;9.80;65.20
23713;DHT22;12035;49.978;8.298;2022-12-07T16:29:21;9.70;64.50
23713;DHT22;12035;49.978;8.298;2022-12-07T16:34:21;9.70;64.80
23713;DHT22;12035;49.978;8.298;2022-12-07T16:39:18;9.70;65.00
23713;DHT22;12035;49.978;8.298;2022-12-07T16:44:15;9.70;65.00
23713;DHT22;12035;49.978;8.298;2022-12-07T16:49:14;9.60;65.00
23713;DHT22;12035;49.978;8.298;2022-12-07T16:54:13;9.60;65.10
23713;DHT22;12035;49.978;8.298;2022-12-07T16:59:11;9.60;65.20
23713;DHT22;12035;49.978;8.298;2022-12-07T17:04:08;9.60;65.20
23713;DHT22;12035;49.978;8.298;2022-12-07T17:09:06;9.60;65.30
23713;DHT22;12035;49.978;8.298;2022-12-07T17:14:06;9.50;65.20
23713;DHT22;12035;49.978;8.298;2022-12-07T17:19:21;9.50;65.30
23713;DHT22;12035;49.978;8.298;2022-12-07T17:24:18;9.50;65.20
23713;DHT22;12035;49.978;8.298;2022-12-07T17:29:17;9.40;66.00
23713;DHT22;12035;49.978;8.298;2022-12-07T17:34:15;9.40;65.30
23713;DHT22;12035;49.978;8.298;2022-12-07T17:39:15;9.40;65.50
23713;DHT22;12035;49.978;8.298;2022-12-07T17:44:15;9.30;65.30
23713;DHT22;12035;49.978;8.298;2022-12-07T17:49:16;9.30;65.40
23713;DHT22;12035;49.978;8.298;2022-12-07T17:54:13;9.20;65.40
23713;DHT22;12035;49.978;8.298;2022-12-07T17:59:10;9.20;65.50
23713;DHT22;12035;49.978;8.298;2022-12-07T18:04:10;9.10;65.50
23713;DHT22;12035;49.978;8.298;2022-12-07T18:09:09;9.10;65.70
23713;DHT22;12035;49.978;8.298;2022-12-07T18:14:07;9.00;65.70
23713;DHT22;12035;49.978;8.298;2022-12-07T18:19:06;9.00;65.70
23713;DHT22;12035;49.978;8.298;2022-12-07T18:24:11;9.00;65.90
23713;DHT22;12035;49.978;8.298;2022-12-07T18:29:11;9.00;65.80
23713;DHT22;12035;49.978;8.298;2022-12-07T18:34:12;8.90;65.80
23713;DHT22;12035;49.978;8.298;2022-12-07T18:39:13;8.90;65.90
23713;DHT22;12035;49.978;8.298;2022-12-07T18:44:10;8.90;66.00
23713;DHT22;12035;49.978;8.298;2022-12-07T18:49:10;8.90;66.10
23713;DHT22;12035;49.978;8.298;2022-12-07T18:54:08;8.90;66.10
23713;DHT22;12035;49.978;8.298;2022-12-07T18:59:06;8.80;66.20
23713;DHT22;12035;49.978;8.298;2022-12-07T19:04:24;8.80;66.20
23713;DHT22;12035;49.978;8.298;2022-12-07T19:09:21;8.80;66.40
23713;DHT22;12035;49.978;8.298;2022-12-07T19:14:23;8.80;66.40
23713;DHT22;12035;49.978;8.298;2022-12-07T19:19:23;8.80;66.40
23713;DHT22;12035;49.978;8.298;2022-12-07T19:24:24;8.70;66.40
23713;DHT22;12035;49.978;8.298;2022-12-07T19:29:23;8.70;66.50
23713;DHT22;12035;49.978;8.298;2022-12-07T19:34:22;8.70;66.50
23713;DHT22;12035;49.978;8.298;2022-12-07T19:39:19;8.60;66.60
23713;DHT22;12035;49.978;8.298;2022-12-07T19:44:18;8.60;66.70
23713;DHT22;12035;49.978;8.298;2022-12-07T19:49:20;8.60;66.80
23713;DHT22;12035;49.978;8.298;2022-12-07T19:54:20;8.60;66.90
23713;DHT22;12035;49.978;8.298;2022-12-07T19:59:20;8.50;66.80
23713;DHT22;12035;49.978;8.298;2022-12-07T20:04:21;8.50;66.90
23713;DHT22;12035;49.978;8.298;2022-12-07T20:09:19;8.40;66.80
23713;DHT22;12035;49.978;8.298;2022-12-07T20:14:17;8.40;66.80
23713;DHT22;12035;49.978;8.298;2022-12-07T20:19:14;8.40;66.90
23713;DHT22;12035;49.978;8.298;2022-12-07T20:24:16;8.30;66.90
23713;DHT22;12035;49.978;8.298;2022-12-07T20:29:15;8.30;67.00
23713;DHT22;12035;49.978;8.298;2022-12-07T20:34:13;8.30;67.20
23713;DHT22;12035;49.978;8.298;2022-12-07T20:39:12;8.30;67.10
23713;DHT22;12035;49.978;8.298;2022-12-07T20:44:10;8.30;67.10
23713;DHT22;12035;49.978;8.298;2022-12-07T20:49:11;8.20;67.20
23713;DHT22;12035;49.978;8.298;2022-12-07T20:54:09;8.20;67.20
23713;DHT22;12035;49.978;8.298;2022-12-07T20:59:11;8.20;67.30
23713;DHT22;12035;49.978;8.298;2022-12-07T21:04:10;8.20;67.40
23713;DHT22;12035;49.978;8.298;2022-12-07T21:09:09;8.10;67.40
23713;DHT22;12035;49.978;8.298;2022-12-07T21:14:08;8.20;67.50
23713;DHT22;12035;49.978;8.298;2022-12-07T21:19:05;8.10;67.60
23713;DHT22;12035;49.978;8.298;2022-12-07T21:24:04;8.10;67.70
23713;DHT22;12035;49.978;8.298;2022-12-07T21:29:04;8.10;67.80
23713;DHT22;12035;49.978;8.298;2022-12-07T21:34:04;8.10;67.80
23713;DHT22;12035;49.978;8.298;2022-12-07T21:39:02;8.10;67.80
23713;DHT22;12035;49.978;8.298;2022-12-07T21:44:00;8.10;67.90
23713;DHT22;12035;49.978;8.298;2022-12-07T21:49:00;8.00;67.80
23713;DHT22;12035;49.978;8.298;2022-12-07T21:54:00;8.00;67.90
23713;DHT22;12035;49.978;8.298;2022-12-07T21:59:00;8.00;68.10
23713;DHT22;12035;49.978;8.298;2022-12-07T22:03:57;7.90;68.10
23713;DHT22;12035;49.978;8.298;2022-12-07T22:08:55;7.90;69.00
23713;DHT22;12035;49.978;8.298;2022-12-07T22:13:56;7.90;68.30
23713;DHT22;12035;49.978;8.298;2022-12-07T22:19:11;7.90;68.50
23713;DHT22;12035;49.978;8.298;2022-12-07T22:24:09;7.90;68.60
23713;DHT22;12035;49.978;8.298;2022-12-07T22:29:10;7.90;68.60
23713;DHT22;12035;49.978;8.298;2022-12-07T22:34:13;8.00;68.60
23713;DHT22;12035;49.978;8.298;2022-12-07T22:39:12;8.00;68.60
23713;DHT22;12035;49.978;8.298;2022-12-07T22:44:10;8.00;68.40
23713;DHT22;12035;49.978;8.298;2022-12-07T22:49:07;8.00;68.40
23713;DHT22;12035;49.978;8.298;2022-12-07T22:54:06;8.00;68.40
23713;DHT22;12035;49.978;8.298;2022-12-07T22:59:07;8.00;68.30
23713;DHT22;12035;49.978;8.298;2022-12-07T23:04:05;8.00;68.40
23713;DHT22;12035;49.978;8.298;2022-12-07T23:09:04;8.00;68.40
23713;DHT22;12035;49.978;8.298;2022-12-07T23:14:03;8.00;68.40
23713;DHT22;12035;49.978;8.298;2022-12-07T23:19:06;8.00;68.60
23713;DHT22;12035;49.978;8.298;2022-12-07T23:24:04;8.00;68.50
23713;DHT22;12035;49.978;8.298;2022-12-07T23:29:02;8.00;68.50
23713;DHT22;12035;49.978;8.298;2022-12-07T23:33:59;8.00;68.60
23713;DHT22;12035;49.978;8.298;2022-12-07T23:38:58;8.00;68.60
23713;DHT22;12035;49.978;8.298;2022-12-07T23:43:55;8.00;68.70
23713;DHT22;12035;49.978;8.298;2022-12-07T23:48:55;8.00;68.70
23713;DHT22;12035;49.978;8.298;2022-12-07T23:53:57;8.00;68.70
23713;DHT22;12035;49.978;8.298;2022-12-07T23:58:57;8.00;68.70
